Time;durP1;ratioP1;P1;durP2;ratioP2;P2;SDS_P1;SDS_P2;PMS_P1;PMS_P2;Temp;Humidity;BMP_temperature;BMP_pressure;BME280_temperature;BME280_humidity;BME280_pressure;Samples;Min_cycle;Max_cycle;Signal;HPM_P1;HPM_P2
2023/09/10 00:02:18;;;;;;;0.40;0.40;;;;;;;13.90;70.03;95001.16;5135451;27;20613;-75
2023/09/10 00:04:45;;;;;;;0.50;0.50;;;;;;;13.90;70.19;95001.97;5135600;27;20205;-76
2023/09/10 00:07:12;;;;;;;0.50;0.50;;;;;;;13.93;69.59;95001.28;5135142;27;20197;-76
2023/09/10 00:09:38;;;;;;;0.70;0.57;;;;;;;13.88;70.78;94998.78;5135329;27;20257;-76
2023/09/10 00:12:06;;;;;;;0.80;0.70;;;;;;;13.89;71.02;95000.38;5135274;27;20205;-76
2023/09/10 00:14:33;;;;;;;0.82;0.60;;;;;;;13.76;70.52;95006.94;5135080;27;20231;-75
2023/09/10 00:17:01;;;;;;;0.50;0.50;;;;;;;13.70;70.69;95008.25;5134796;27;20232;-75
2023/09/10 00:19:28;;;;;;;0.50;0.50;;;;;;;13.71;70.91;95005.22;5135343;27;20205;-76
2023/09/10 00:21:55;;;;;;;0.70;0.70;;;;;;;13.72;70.71;95004.06;5135171;27;20308;-76
2023/09/10 00:24:21;;;;;;;1.55;0.80;;;;;;;13.76;70.08;95001.47;5135073;27;20598;-76
2023/09/10 00:26:48;;;;;;;0.75;0.75;;;;;;;13.68;70.20;94994.19;5134927;27;20205;-76
2023/09/10 00:29:15;;;;;;;2.10;0.82;;;;;;;13.66;71.28;94996.47;5135009;27;20205;-76
2023/09/10 00:31:42;;;;;;;0.68;0.65;;;;;;;13.51;70.95;94997.94;5135218;27;20254;-76
2023/09/10 00:34:11;;;;;;;0.40;0.40;;;;;;;13.55;71.88;94989.84;5134937;27;20201;-76
2023/09/10 00:36:38;;;;;;;0.68;0.60;;;;;;;13.36;71.01;94988.47;5134732;27;20205;-76
2023/09/10 00:39:05;;;;;;;0.60;0.50;;;;;;;13.27;71.53;94990.47;5134757;27;20710;-75
2023/09/10 00:41:32;;;;;;;1.50;0.88;;;;;;;13.30;71.31;94995.25;5134658;27;20235;-76
2023/09/10 00:43:58;;;;;;;0.73;0.65;;;;;;;13.27;71.79;94995.91;5134268;27;20213;-75
2023/09/10 00:46:25;;;;;;;0.40;0.40;;;;;;;13.31;72.05;94996.84;5134950;27;20572;-76
2023/09/10 00:48:53;;;;;;;0.20;0.20;;;;;;;13.28;72.53;95000.22;5135208;27;20707;-75
2023/09/10 00:51:21;;;;;;;0.10;0.10;;;;;;;13.26;72.04;94993.53;5134186;27;20193;-75
2023/09/10 00:53:50;;;;;;;2.90;0.52;;;;;;;13.22;72.03;94985.25;5134494;27;20200;-75
2023/09/10 00:56:17;;;;;;;0.20;0.20;;;;;;;13.16;72.44;94994.75;5134116;27;20213;-75
2023/09/10 00:58:44;;;;;;;0.20;0.20;;;;;;;13.20;72.23;94992.16;5134621;27;20572;-76
2023/09/10 01:01:10;;;;;;;0.20;0.20;;;;;;;13.13;72.61;94992.66;5133909;27;20285;-75
2023/09/10 01:03:39;;;;;;;0.30;0.30;;;;;;;13.19;73.22;94999.53;5134504;27;20529;-76
2023/09/10 01:06:06;;;;;;;0.10;0.10;;;;;;;13.18;73.30;94997.94;5134298;27;20212;-75
2023/09/10 01:08:34;;;;;;;0.10;0.10;;;;;;;13.21;73.25;94997.25;5133832;27;20201;-76
2023/09/10 01:11:08;;;;;;;0.77;0.60;;;;;;;13.35;73.00;94997.75;5133849;27;20197;-75
2023/09/10 01:13:42;;;;;;;0.40;0.40;;;;;;;13.27;74.20;94992.38;5134311;27;20692;-75
2023/09/10 01:16:17;;;;;;;0.50;0.50;;;;;;;13.22;74.92;94993.41;5133573;27;20287;-76
2023/09/10 01:18:48;;;;;;;0.77;0.50;;;;;;;13.12;75.24;94989.13;5134334;27;20185;-76
2023/09/10 01:21:32;;;;;;;0.20;0.20;;;;;;;13.00;75.15;94988.28;5133571;27;20641;-76
2023/09/10 01:24:14;;;;;;;0.30;0.30;;;;;;;13.08;74.62;94979.28;5134108;27;20541;-75
2023/09/10 01:26:42;;;;;;;0.20;0.20;;;;;;;13.04;74.10;94975.63;5134213;27;20619;-75
2023/09/10 01:29:12;;;;;;;0.20;0.20;;;;;;;12.96;74.85;94973.78;5133674;27;20208;-76
2023/09/10 01:31:41;;;;;;;0.30;0.30;;;;;;;12.93;75.05;94979.91;5133693;27;20228;-76
2023/09/10 01:34:14;;;;;;;0.20;0.20;;;;;;;12.92;74.73;94975.59;5133894;27;20603;-75
2023/09/10 01:36:46;;;;;;;0.20;0.20;;;;;;;12.88;75.03;94983.59;5133562;27;20193;-76
2023/09/10 01:39:18;;;;;;;0.20;0.20;;;;;;;12.73;75.36;94990.44;5133404;27;20193;-75
2023/09/10 01:41:47;;;;;;;0.20;0.20;;;;;;;12.64;75.62;94989.72;5133582;27;21100;-76
2023/09/10 01:44:16;;;;;;;1.00;0.57;;;;;;;12.61;75.67;95000.44;5133275;27;20303;-76
2023/09/10 01:46:45;;;;;;;1.55;0.65;;;;;;;12.53;75.72;94991.25;5133628;27;20625;-76
2023/09/10 01:49:12;;;;;;;0.93;0.60;;;;;;;12.65;75.17;94991.31;5133550;27;20234;-75
2023/09/10 01:51:39;;;;;;;0.80;0.63;;;;;;;12.64;75.11;94994.34;5133590;27;20611;-76
2023/09/10 01:54:06;;;;;;;0.63;0.63;;;;;;;12.58;75.55;95001.91;5133142;27;20208;-75
2023/09/10 01:56:33;;;;;;;0.30;0.30;;;;;;;12.55;75.33;95008.03;5133424;27;20591;-75
2023/09/10 01:59:01;;;;;;;0.20;0.20;;;;;;;12.63;75.59;95004.44;5133426;27;20208;-75
2023/09/10 02:01:28;;;;;;;0.20;0.20;;;;;;;12.63;76.04;95006.34;5132795;27;20213;-76
2023/09/10 02:03:54;;;;;;;0.22;0.22;;;;;;;12.58;76.96;95007.34;5133092;27;20205;-76
2023/09/10 02:06:21;;;;;;;0.10;0.10;;;;;;;12.54;78.04;95014.59;5132907;27;20197;-76
2023/09/10 02:08:48;;;;;;;0.20;0.20;;;;;;;12.59;77.73;95014.38;5132987;27;20204;-76
2023/09/10 02:11:15;;;;;;;0.20;0.20;;;;;;;12.68;77.22;95015.13;5132846;27;20212;-75
2023/09/10 02:13:42;;;;;;;0.10;0.10;;;;;;;12.75;77.05;95007.22;5133171;27;20228;-76
2023/09/10 02:16:10;;;;;;;0.20;0.20;;;;;;;12.79;77.99;95010.88;5132200;27;20275;-75
2023/09/10 02:18:37;;;;;;;0.55;0.50;;;;;;;12.80;77.59;95009.75;5133229;27;20569;-75
2023/09/10 02:21:09;;;;;;;0.50;0.47;;;;;;;12.74;78.33;95021.94;5131495;27;20225;-75
2023/09/10 02:23:36;;;;;;;0.30;0.30;;;;;;;12.65;78.54;95023.94;5133095;27;20603;-75
2023/09/10 02:26:03;;;;;;;0.65;0.63;;;;;;;12.57;78.51;95022.06;5132372;27;20273;-75
2023/09/10 02:28:30;;;;;;;0.50;0.43;;;;;;;12.56;78.57;95028.63;5132719;27;20236;-75
2023/09/10 02:30:57;;;;;;;0.80;0.60;;;;;;;12.42;78.88;95022.66;5132657;27;20238;-75
2023/09/10 02:33:25;;;;;;;1.08;0.73;;;;;;;12.29;79.11;95027.22;5132682;27;20645;-75
2023/09/10 02:35:52;;;;;;;0.57;0.57;;;;;;;12.21;79.24;95024.53;5132443;27;20201;-75
2023/09/10 02:38:18;;;;;;;0.98;0.50;;;;;;;12.16;78.10;95022.81;5132657;27;20216;-75
2023/09/10 02:40:45;;;;;;;0.60;0.60;;;;;;;12.14;78.12;95018.81;5132510;27;20236;-75
2023/09/10 02:43:12;;;;;;;0.40;0.40;;;;;;;12.09;78.56;95011.63;5132531;27;20250;-75
2023/09/10 02:45:39;;;;;;;0.63;0.63;;;;;;;12.00;79.36;95017.13;5132366;27;20253;-75
2023/09/10 02:48:06;;;;;;;0.70;0.55;;;;;;;12.00;78.99;95014.41;5132513;27;20201;-75
2023/09/10 02:50:34;;;;;;;0.13;0.13;;;;;;;12.13;79.24;95009.06;5132588;27;20201;-75
2023/09/10 02:53:01;;;;;;;0.20;0.20;;;;;;;12.16;78.97;95005.72;5132337;27;20715;-75
2023/09/10 02:55:28;;;;;;;0.20;0.20;;;;;;;12.22;79.37;95005.19;5132191;27;20249;-75
2023/09/10 02:57:54;;;;;;;0.20;0.20;;;;;;;12.27;78.97;95006.91;5132224;27;20197;-75
2023/09/10 03:00:25;;;;;;;0.20;0.20;;;;;;;12.33;78.79;95006.38;5131939;27;20208;-75
2023/09/10 03:02:52;;;;;;;0.10;0.10;;;;;;;12.38;78.69;95008.13;5132063;27;20645;-75
2023/09/10 03:05:19;;;;;;;0.65;0.43;;;;;;;12.44;78.85;95006.78;5131856;27;20300;-75
2023/09/10 03:07:47;;;;;;;0.20;0.20;;;;;;;12.48;79.15;95015.09;5131870;27;20335;-75
2023/09/10 03:10:14;;;;;;;0.20;0.20;;;;;;;12.59;78.73;95003.50;5132111;27;20527;-75
2023/09/10 03:12:41;;;;;;;0.20;0.20;;;;;;;12.61;78.73;95014.84;5131831;27;20220;-76
2023/09/10 03:15:08;;;;;;;0.20;0.20;;;;;;;12.54;78.69;95006.44;5131595;27;20282;-75
2023/09/10 03:17:35;;;;;;;0.25;0.25;;;;;;;12.52;79.08;95019.53;5132090;27;20237;-75
2023/09/10 03:20:04;;;;;;;0.17;0.17;;;;;;;12.45;79.24;95024.69;5131742;28;20607;-75
2023/09/10 03:22:31;;;;;;;0.20;0.20;;;;;;;12.45;79.64;95021.97;5131641;28;20221;-75
2023/09/10 03:24:59;;;;;;;0.22;0.22;;;;;;;12.45;79.29;95021.97;5131874;28;20207;-75
2023/09/10 03:27:26;;;;;;;0.10;0.10;;;;;;;12.45;79.76;95030.13;5131785;28;20205;-75
2023/09/10 03:29:53;;;;;;;0.20;0.20;;;;;;;12.48;79.75;95028.69;5131852;28;20201;-76
2023/09/10 03:32:20;;;;;;;0.20;0.20;;;;;;;12.42;80.01;95028.09;5133819;27;20618;-75
2023/09/10 03:34:46;;;;;;;0.20;0.20;;;;;;;12.49;79.42;95025.63;5136406;27;20208;-75
2023/09/10 03:37:13;;;;;;;0.20;0.20;;;;;;;12.50;79.71;95021.00;5135921;27;20596;-75
2023/09/10 03:39:40;;;;;;;0.20;0.20;;;;;;;12.54;78.86;95025.44;5136072;27;20212;-76
2023/09/10 03:42:09;;;;;;;0.20;0.20;;;;;;;12.49;78.43;95031.06;5135747;27;20225;-76
2023/09/10 03:44:35;;;;;;;0.10;0.10;;;;;;;12.45;78.37;95030.13;5136094;27;20632;-76
2023/09/10 03:47:02;;;;;;;0.10;0.10;;;;;;;14.97;89.05;95016.19;5129897;27;20202;-77
2023/09/10 03:49:29;;;;;;;0.30;0.30;;;;;;;16.20;81.60;95018.75;5131622;27;20257;-76
2023/09/10 03:51:57;;;;;;;0.20;0.20;;;;;;;16.71;76.41;95010.59;5121681;27;20246;-76
2023/09/10 03:54:24;;;;;;;0.10;0.10;;;;;;;16.09;72.48;95017.69;5124952;27;20205;-76
2023/09/10 03:56:51;;;;;;;0.10;0.10;;;;;;;15.74;70.53;95022.25;5126841;27;20717;-75
2023/09/10 03:59:19;;;;;;;0.10;0.10;;;;;;;15.57;72.47;95023.38;5134123;27;20642;-76
2023/09/10 04:01:47;;;;;;;0.10;0.10;;;;;;;16.45;69.66;95018.53;5124563;27;20255;-76
2023/09/10 04:04:14;;;;;;;0.20;0.20;;;;;;;16.46;67.90;95025.59;5133858;27;20205;-75
2023/09/10 04:06:41;;;;;;;0.25;0.25;;;;;;;16.37;68.43;95025.00;5134079;27;20573;-75
2023/09/10 04:09:08;;;;;;;0.73;0.73;;;;;;;15.74;67.55;95022.25;5134025;27;20283;-76
2023/09/10 04:11:34;;;;;;;0.20;0.20;;;;;;;15.30;69.05;95027.69;5134096;27;20686;-76
2023/09/10 04:14:01;;;;;;;1.40;0.68;;;;;;;15.33;70.36;95029.69;5133669;27;20665;-75
2023/09/10 04:16:29;;;;;;;0.30;0.30;;;;;;;15.13;71.46;95028.75;5133434;27;20235;-75
2023/09/10 04:18:56;;;;;;;0.20;0.20;;;;;;;15.54;69.27;95037.69;5133462;27;20193;-76
2023/09/10 04:21:23;;;;;;;0.20;0.20;;;;;;;16.39;68.36;95033.66;5133218;27;20221;-76
2023/09/10 04:23:50;;;;;;;0.20;0.20;;;;;;;16.49;67.06;95035.84;5126200;27;20205;-76
2023/09/10 04:26:17;;;;;;;0.13;0.13;;;;;;;17.96;64.02;95017.44;5133328;27;20223;-78
2023/09/10 04:28:44;;;;;;;0.10;0.10;;;;;;;17.87;62.38;95016.88;5131200;27;20205;-76
2023/09/10 04:31:13;;;;;;;0.20;0.20;;;;;;;17.50;61.93;95019.28;5133374;27;20569;-76
2023/09/10 04:33:41;;;;;;;0.90;0.75;;;;;;;18.05;60.11;95019.91;5131734;27;20211;-78
2023/09/10 04:36:09;;;;;;;0.15;0.15;;;;;;;18.37;59.14;95018.50;5130654;27;20631;-73
2023/09/10 04:38:36;;;;;;;0.10;0.10;;;;;;;18.26;59.22;95023.03;5132838;27;20208;-77
2023/09/10 04:41:06;;;;;;;0.20;0.20;;;;;;;19.23;58.55;95019.78;5124170;27;20205;-78
2023/09/10 04:43:47;;;;;;;0.10;0.10;;;;;;;20.16;56.37;95014.97;5120735;27;20205;-77
2023/09/10 04:46:14;;;;;;;0.82;0.60;;;;;;;19.99;55.39;95014.78;5125216;27;20224;-77
2023/09/10 04:48:42;;;;;;;0.57;0.55;;;;;;;20.46;55.06;95025.88;5132104;27;20197;-77
2023/09/10 04:51:10;;;;;;;0.20;0.20;;;;;;;20.97;52.71;95011.28;5110277;27;20201;-78
2023/09/10 04:53:36;;;;;;;0.60;0.60;;;;;;;20.95;51.96;95019.13;5132816;27;20623;-78
2023/09/10 04:56:03;;;;;;;0.30;0.30;;;;;;;20.99;52.72;95019.94;5132722;27;20197;-78
2023/09/10 04:58:30;;;;;;;0.75;0.60;;;;;;;22.06;50.56;95020.41;5130620;27;21081;-77
2023/09/10 05:00:57;;;;;;;0.30;0.30;;;;;;;21.64;49.49;95016.34;5132188;27;20201;-78
2023/09/10 05:03:24;;;;;;;0.10;0.10;;;;;;;22.04;49.53;95018.06;5132769;27;20867;-78
2023/09/10 05:05:58;;;;;;;0.20;0.20;;;;;;;22.39;49.26;95017.31;5133408;27;20216;-78
2023/09/10 05:08:25;;;;;;;1.20;0.60;;;;;;;23.06;43.71;95015.72;5129620;27;20763;-78
2023/09/10 05:10:52;;;;;;;0.70;0.70;;;;;;;23.59;43.76;95015.59;5132979;27;20200;-77
2023/09/10 05:13:19;;;;;;;0.20;0.20;;;;;;;24.03;43.21;95013.00;5125217;27;20228;-78
2023/09/10 05:15:46;;;;;;;0.43;0.43;;;;;;;23.86;42.52;95013.88;5126110;27;20252;-79
2023/09/10 05:18:13;;;;;;;0.60;0.60;;;;;;;23.29;42.13;95019.59;5127484;27;20566;-79
2023/09/10 05:20:40;;;;;;;0.65;0.45;;;;;;;23.74;41.22;95017.09;5126137;27;20201;-80
2023/09/10 05:23:09;;;;;;;0.70;0.65;;;;;;;24.07;40.30;95008.22;5126389;27;20713;-78
2023/09/10 05:25:36;;;;;;;1.10;0.80;;;;;;;25.05;40.18;95015.41;5107567;27;20201;-78
2023/09/10 05:28:04;;;;;;;0.70;0.63;;;;;;;24.98;38.70;95023.81;5124014;27;20266;-81
2023/09/10 05:30:31;;;;;;;0.85;0.50;;;;;;;25.89;36.22;95024.00;5126642;27;20201;-78
2023/09/10 05:32:58;;;;;;;0.63;0.45;;;;;;;26.15;33.93;95014.91;5120376;27;20296;-78
2023/09/10 05:35:26;;;;;;;0.57;0.50;;;;;;;25.79;36.16;95020.16;5126820;27;20209;-78
2023/09/10 05:37:52;;;;;;;0.47;0.40;;;;;;;24.38;35.60;95022.28;5123691;27;20205;-77
2023/09/10 05:40:21;;;;;;;0.30;0.30;;;;;;;23.77;36.61;95029.34;5130620;27;20214;-76
2023/09/10 05:42:48;;;;;;;0.93;0.60;;;;;;;24.26;36.60;95025.53;5132534;27;20220;-78
2023/09/10 05:45:15;;;;;;;0.32;0.32;;;;;;;25.05;36.59;95029.28;5125769;27;20209;-77
2023/09/10 05:47:42;;;;;;;0.30;0.30;;;;;;;24.87;35.36;95028.63;5130684;27;20273;-79
2023/09/10 05:50:09;;;;;;;0.82;0.50;;;;;;;25.39;33.77;95034.88;5125043;27;20216;-79
2023/09/10 05:52:42;;;;;;;0.38;0.38;;;;;;;24.89;35.10;95029.00;5126054;27;20207;-80
2023/09/10 05:55:09;;;;;;;0.45;0.40;;;;;;;25.55;34.77;95031.53;5110698;27;20668;-78
2023/09/10 05:57:37;;;;;;;0.70;0.38;;;;;;;26.51;32.84;95025.53;5124612;27;20213;-77
2023/09/10 06:00:05;;;;;;;0.32;0.32;;;;;;;26.94;32.43;95019.28;5128469;27;20209;-77
2023/09/10 06:02:39;;;;;;;0.50;0.50;;;;;;;26.52;32.91;95024.31;5126285;27;20244;-78
2023/09/10 06:05:06;;;;;;;1.65;0.70;;;;;;;26.58;33.68;95025.41;5127671;27;20201;-78
2023/09/10 06:07:33;;;;;;;0.50;0.50;;;;;;;28.43;31.34;95021.94;5125848;27;20197;-77
2023/09/10 06:10:12;;;;;;;0.30;0.30;;;;;;;27.92;30.74;95026.97;5124473;27;20211;-80
2023/09/10 06:12:44;;;;;;;0.30;0.30;;;;;;;28.65;30.43;95028.56;5124653;27;20262;-78
2023/09/10 06:15:11;;;;;;;0.35;0.35;;;;;;;28.55;30.46;95024.03;5125028;27;20220;-77
2023/09/10 06:17:38;;;;;;;0.70;0.50;;;;;;;28.32;30.62;95027.72;5121567;27;20270;-79
2023/09/10 06:20:06;;;;;;;0.68;0.50;;;;;;;27.89;31.08;95027.84;5128096;27;20265;-78
2023/09/10 06:22:34;;;;;;;0.52;0.43;;;;;;;27.41;31.29;95033.94;5130797;27;20335;-80
2023/09/10 06:25:00;;;;;;;1.00;0.80;;;;;;;26.67;31.75;95036.78;5132407;27;20209;-76
2023/09/10 06:27:27;;;;;;;0.80;0.40;;;;;;;27.54;31.83;95030.09;5132284;27;20208;-77
2023/09/10 06:29:55;;;;;;;0.55;0.50;;;;;;;27.39;32.12;95039.94;5131549;27;20220;-77
2023/09/10 06:32:25;;;;;;;0.50;0.40;;;;;;;27.92;32.35;95026.97;5131508;27;20212;-80
2023/09/10 06:34:53;;;;;;;0.30;0.30;;;;;;;27.96;31.66;95033.28;5131582;27;20222;-79
2023/09/10 06:37:20;;;;;;;0.40;0.40;;;;;;;28.64;30.79;95032.56;5131321;27;20245;-77
2023/09/10 06:39:47;;;;;;;0.73;0.73;;;;;;;28.32;30.83;95038.09;5126610;27;20569;-75
2023/09/10 06:42:16;;;;;;;0.55;0.50;;;;;;;28.54;29.93;95034.41;5111687;28;20618;-77
2023/09/10 06:44:43;;;;;;;0.70;0.70;;;;;;;27.52;31.64;95032.53;5111976;28;20221;-79
2023/09/10 06:47:12;;;;;;;1.25;0.93;;;;;;;27.32;31.28;95034.50;5118559;27;20249;-76
2023/09/10 06:49:54;;;;;;;0.80;0.57;;;;;;;27.81;31.01;95032.00;5131460;27;20213;-78
2023/09/10 06:52:21;;;;;;;0.40;0.40;;;;;;;29.10;30.06;95025.91;5131126;27;20520;-77
2023/09/10 06:54:49;;;;;;;1.90;0.70;;;;;;;28.81;29.21;95025.81;5131778;27;20224;-78
2023/09/10 06:57:16;;;;;;;0.65;0.47;;;;;;;28.79;30.04;95033.06;5130975;27;20189;-80
2023/09/10 06:59:43;;;;;;;0.50;0.50;;;;;;;26.71;31.83;95037.50;5113651;27;20209;-78
2023/09/10 07:02:11;;;;;;;0.50;0.50;;;;;;;26.75;32.61;95043.03;5124620;27;20225;-78
2023/09/10 07:04:47;;;;;;;0.80;0.60;;;;;;;26.86;31.88;95041.63;5112938;27;20278;-78
2023/09/10 07:07:16;;;;;;;0.70;0.70;;;;;;;26.70;32.32;95038.72;5111082;28;20213;-79
2023/09/10 07:09:43;;;;;;;0.50;0.50;;;;;;;27.59;32.00;95032.44;5131418;27;20216;-77
2023/09/10 07:12:10;;;;;;;0.30;0.30;;;;;;;26.84;32.95;95038.50;5131180;27;20253;-77
2023/09/10 07:14:37;;;;;;;0.55;0.55;;;;;;;26.92;31.75;95037.16;5117995;27;20319;-78
2023/09/10 07:17:06;;;;;;;0.40;0.40;;;;;;;27.55;31.32;95028.91;5130402;27;20710;-78
2023/09/10 07:19:47;;;;;;;1.10;1.00;;;;;;;25.94;32.64;95048.53;5097533;28;20204;-78
2023/09/10 07:22:19;;;;;;;0.77;0.57;;;;;;;26.55;33.32;95038.16;5124093;28;20209;-78
2023/09/10 07:24:46;;;;;;;0.50;0.50;;;;;;;26.76;31.88;95039.81;5120248;28;20204;-78
2023/09/10 07:27:13;;;;;;;0.63;0.50;;;;;;;26.02;33.11;95050.00;5124578;28;20572;-79
2023/09/10 07:29:40;;;;;;;0.63;0.60;;;;;;;25.66;33.97;95046.09;5110878;28;20217;-77
2023/09/10 07:32:08;;;;;;;0.80;0.60;;;;;;;25.17;34.52;95045.38;5123397;28;20205;-78
2023/09/10 07:34:38;;;;;;;0.98;0.52;;;;;;;25.44;34.35;95037.19;5122215;28;20592;-78
2023/09/10 07:37:05;;;;;;;2.40;1.42;;;;;;;25.90;34.34;95039.44;5125845;28;20202;-77
2023/09/10 07:39:32;;;;;;;0.60;0.50;;;;;;;26.54;33.48;95027.44;5110837;28;20658;-78
2023/09/10 07:41:59;;;;;;;0.50;0.50;;;;;;;26.70;32.73;95024.81;5110540;28;20262;-78
2023/09/10 07:44:26;;;;;;;0.68;0.68;;;;;;;26.59;33.93;95032.53;5111085;28;20625;-78
2023/09/10 07:46:53;;;;;;;0.70;0.70;;;;;;;26.77;33.33;95029.50;5111364;28;20209;-77
2023/09/10 07:49:23;;;;;;;0.50;0.50;;;;;;;27.06;33.37;95016.69;5131504;28;20237;-79
2023/09/10 07:51:51;;;;;;;0.82;0.50;;;;;;;26.46;33.73;95012.09;5128643;28;20254;-78
2023/09/10 07:54:19;;;;;;;1.38;0.73;;;;;;;26.62;33.16;95017.81;5110288;28;20635;-79
2023/09/10 07:56:46;;;;;;;0.82;0.73;;;;;;;26.42;33.32;95026.03;5110346;28;20209;-78
2023/09/10 07:59:14;;;;;;;1.05;0.98;;;;;;;25.77;34.22;95022.56;5110686;28;20241;-78
2023/09/10 08:01:42;;;;;;;0.60;0.60;;;;;;;24.63;36.33;95022.88;5123780;28;20213;-78
2023/09/10 08:04:11;;;;;;;0.63;0.63;;;;;;;24.62;36.48;95021.28;5128962;28;20224;-79
2023/09/10 08:06:38;;;;;;;0.90;0.60;;;;;;;25.15;35.71;95023.63;5125090;28;20669;-76
2023/09/10 08:09:06;;;;;;;0.60;0.60;;;;;;;25.66;35.50;95026.66;5128646;28;20205;-77
2023/09/10 08:11:33;;;;;;;1.30;1.10;;;;;;;26.02;34.04;95022.22;5125104;28;20210;-78
2023/09/10 08:14:00;;;;;;;0.80;0.70;;;;;;;25.86;34.06;95013.72;5112401;28;20631;-76
2023/09/10 08:16:27;;;;;;;0.40;0.40;;;;;;;25.63;33.96;95021.94;5122536;28;20236;-78
2023/09/10 08:18:54;;;;;;;0.95;0.65;;;;;;;25.92;33.97;95023.16;5129414;27;20201;-77
2023/09/10 08:21:21;;;;;;;1.60;0.70;;;;;;;26.15;33.79;95008.56;5133857;27;20205;-78
2023/09/10 08:23:48;;;;;;;0.80;0.65;;;;;;;25.79;34.62;95020.16;5131740;27;20216;-77
2023/09/10 08:26:16;;;;;;;0.50;0.50;;;;;;;25.25;36.30;95019.19;5130808;27;20570;-78
2023/09/10 08:28:43;;;;;;;0.70;0.70;;;;;;;25.52;34.79;95015.72;5128609;27;20216;-78
2023/09/10 08:31:10;;;;;;;0.70;0.60;;;;;;;25.76;36.03;95009.09;5126396;27;20208;-77
2023/09/10 08:33:37;;;;;;;0.57;0.50;;;;;;;25.89;36.32;95001.00;5131656;27;20197;-77
2023/09/10 08:36:04;;;;;;;0.93;0.88;;;;;;;25.74;35.81;95008.72;5125683;27;20197;-77
2023/09/10 08:38:31;;;;;;;0.70;0.55;;;;;;;25.67;35.99;95006.03;5130182;27;20300;-78
2023/09/10 08:41:15;;;;;;;0.73;0.65;;;;;;;26.03;35.14;95006.34;5126753;27;20209;-77
2023/09/10 08:43:49;;;;;;;0.50;0.50;;;;;;;25.69;36.02;95003.66;5132971;27;20217;-77
2023/09/10 08:46:16;;;;;;;1.23;0.60;;;;;;;25.38;36.89;95000.81;5119420;27;20230;-80
2023/09/10 08:48:43;;;;;;;1.42;0.90;;;;;;;25.66;36.38;95004.47;5132189;27;20213;-77
2023/09/10 08:51:11;;;;;;;1.27;0.60;;;;;;;25.91;35.75;95010.47;5126701;27;20261;-77
2023/09/10 08:53:39;;;;;;;1.10;0.90;;;;;;;26.13;36.53;95006.19;5123063;27;20208;-77
2023/09/10 08:56:08;;;;;;;0.50;0.50;;;;;;;25.62;36.25;95009.25;5124191;27;20262;-77
2023/09/10 08:58:36;;;;;;;0.88;0.70;;;;;;;25.17;36.79;95017.66;5129136;27;20212;-79
2023/09/10 09:01:05;;;;;;;0.60;0.60;;;;;;;24.76;38.48;95004.56;5123895;27;20208;-76
2023/09/10 09:03:33;;;;;;;1.00;0.85;;;;;;;25.00;37.42;95007.56;5119584;27;20233;-77
2023/09/10 09:06:02;;;;;;;1.10;1.00;;;;;;;25.22;36.96;95008.91;5122595;27;20209;-76
2023/09/10 09:08:31;;;;;;;1.92;0.95;;;;;;;24.85;37.88;95001.31;5124195;27;20205;-76
2023/09/10 09:10:59;;;;;;;1.33;1.10;;;;;;;25.40;37.32;95003.16;5123308;27;20564;-76
2023/09/10 09:13:29;;;;;;;0.85;0.65;;;;;;;25.46;36.83;95005.06;5123667;27;20237;-75
2023/09/10 09:15:57;;;;;;;1.15;0.70;;;;;;;25.15;37.17;95008.97;5124881;27;20273;-76
2023/09/10 09:18:27;;;;;;;0.95;0.85;;;;;;;25.39;37.58;94991.28;5129117;27;20224;-76
2023/09/10 09:20:58;;;;;;;1.00;0.95;;;;;;;25.43;37.63;94996.75;5120418;27;20236;-76
2023/09/10 09:23:30;;;;;;;0.65;0.60;;;;;;;24.90;36.94;94997.31;5124301;27;20227;-76
2023/09/10 09:25:58;;;;;;;0.73;0.70;;;;;;;25.39;37.74;94996.81;5123554;27;20201;-76
2023/09/10 09:28:27;;;;;;;0.77;0.70;;;;;;;25.59;36.86;94999.75;5124891;27;20303;-77
2023/09/10 09:30:54;;;;;;;1.08;0.82;;;;;;;24.91;36.87;95007.19;5123308;27;20280;-76
2023/09/10 09:33:21;;;;;;;0.88;0.80;;;;;;;24.94;38.02;95003.63;5123957;27;20688;-76
2023/09/10 09:35:49;;;;;;;1.13;0.75;;;;;;;25.20;37.52;94997.44;5120327;27;20230;-75
2023/09/10 09:38:16;;;;;;;1.02;0.65;;;;;;;25.06;37.15;95005.91;5127417;27;20205;-76
2023/09/10 09:40:43;;;;;;;1.27;0.88;;;;;;;24.68;37.92;95003.06;5128769;27;20216;-76
2023/09/10 09:43:11;;;;;;;0.88;0.75;;;;;;;24.80;37.51;94994.22;5127798;27;20225;-78
2023/09/10 09:45:39;;;;;;;2.90;0.93;;;;;;;24.80;37.99;94990.66;5121790;27;20232;-75
2023/09/10 09:48:07;;;;;;;1.33;0.80;;;;;;;24.78;37.05;94996.63;5130322;27;20546;-77
2023/09/10 09:50:34;;;;;;;1.25;0.90;;;;;;;24.95;36.96;94977.50;5132481;27;20550;-76
2023/09/10 09:53:02;;;;;;;0.77;0.60;;;;;;;25.05;37.52;94993.22;5129669;27;20205;-77
2023/09/10 09:55:29;;;;;;;0.77;0.70;;;;;;;25.24;37.31;94980.75;5127535;27;20201;-76
2023/09/10 09:57:56;;;;;;;1.45;1.00;;;;;;;25.83;36.82;94978.47;5129221;27;20193;-76
2023/09/10 10:00:23;;;;;;;1.23;0.77;;;;;;;25.87;37.06;94970.88;5112848;27;20296;-76
2023/09/10 10:02:50;;;;;;;1.42;0.98;;;;;;;26.35;35.36;94967.03;5129404;27;20254;-75
2023/09/10 10:05:18;;;;;;;1.40;0.82;;;;;;;26.33;36.16;94966.66;5129970;27;20705;-75
2023/09/10 10:07:45;;;;;;;1.00;0.90;;;;;;;26.13;35.64;94972.88;5131654;27;20220;-74
2023/09/10 10:10:16;;;;;;;0.60;0.60;;;;;;;26.02;36.46;94961.13;5132046;27;20662;-76
2023/09/10 10:12:44;;;;;;;0.77;0.70;;;;;;;26.01;36.70;94956.00;5131979;27;20310;-76
2023/09/10 10:15:12;;;;;;;4.10;0.70;;;;;;;25.73;36.06;94965.50;5131851;27;20233;-75
2023/09/10 10:17:42;;;;;;;1.48;0.70;;;;;;;25.77;37.63;94955.16;5126721;27;20775;-75
2023/09/10 10:20:10;;;;;;;0.65;0.57;;;;;;;25.76;36.07;94951.59;5126380;27;20201;-75
2023/09/10 10:22:37;;;;;;;0.50;0.50;;;;;;;25.53;36.60;94956.25;5125093;27;20234;-76
2023/09/10 10:25:04;;;;;;;1.17;0.77;;;;;;;25.38;36.67;94961.19;5120052;27;20229;-76
2023/09/10 10:27:34;;;;;;;0.88;0.55;;;;;;;25.52;37.30;94960.22;5122696;27;20217;-75
2023/09/10 10:30:01;;;;;;;0.60;0.60;;;;;;;25.23;37.50;94955.00;5124569;27;20201;-76
2023/09/10 10:32:33;;;;;;;0.55;0.55;;;;;;;25.32;37.55;94952.50;5131615;27;20204;-76
2023/09/10 10:35:04;;;;;;;1.27;0.98;;;;;;;25.70;36.95;94944.91;5132212;27;20235;-76
2023/09/10 10:37:36;;;;;;;0.70;0.60;;;;;;;25.93;36.69;94933.13;5131645;27;20212;-77
2023/09/10 10:40:09;;;;;;;0.68;0.68;;;;;;;26.31;36.35;94930.19;5131500;27;20292;-77
2023/09/10 10:42:45;;;;;;;0.70;0.70;;;;;;;26.43;36.12;94935.91;5113164;27;20232;-77
2023/09/10 10:45:17;;;;;;;1.50;1.02;;;;;;;26.68;35.51;94929.94;5130959;27;20577;-78
2023/09/10 10:47:45;;;;;;;0.95;0.82;;;;;;;26.95;35.09;94915.19;5119594;27;20666;-77
2023/09/10 10:50:16;;;;;;;0.77;0.70;;;;;;;27.03;34.49;94911.06;5131429;27;20290;-76
2023/09/10 10:52:51;;;;;;;0.68;0.60;;;;;;;26.90;34.76;94908.91;5130925;27;20621;-76
2023/09/10 10:55:19;;;;;;;0.98;0.80;;;;;;;26.40;36.06;94917.31;5131461;27;20204;-78
2023/09/10 10:57:48;;;;;;;0.98;0.60;;;;;;;26.23;36.23;94906.47;5131462;27;20570;-77
2023/09/10 11:00:16;;;;;;;0.63;0.60;;;;;;;26.06;36.48;94922.22;5130704;27;20223;-75
2023/09/10 11:02:43;;;;;;;1.02;0.60;;;;;;;25.70;36.29;94908.06;5131376;27;20201;-77
2023/09/10 11:05:10;;;;;;;1.60;1.17;;;;;;;25.65;37.20;94903.00;5131366;27;20251;-77
2023/09/10 11:07:36;;;;;;;0.50;0.50;;;;;;;26.02;37.12;94894.50;5131224;27;20205;-76
2023/09/10 11:10:36;;;;;;;0.60;0.60;;;;;;;26.03;36.40;94890.50;5130717;27;20216;-77
2023/09/10 11:13:09;;;;;;;1.05;0.95;;;;;;;26.11;36.81;94897.50;5130564;27;20233;-78
2023/09/10 11:15:36;;;;;;;0.65;0.50;;;;;;;26.03;36.01;94918.28;5124710;27;20237;-78
2023/09/10 11:18:44;;;;;;;0.80;0.70;;;;;;;25.76;36.62;94920.28;5124902;27;20649;-75
2023/09/10 11:21:12;;;;;;;0.90;0.80;;;;;;;25.59;36.69;94894.31;5102953;27;20645;-75
2023/09/10 11:23:39;;;;;;;0.63;0.63;;;;;;;25.66;36.72;94894.25;5131109;28;20241;-76
2023/09/10 11:26:34;;;;;;;0.70;0.70;;;;;;;25.80;37.00;94887.72;5126059;28;20602;-76
2023/09/10 11:29:05;;;;;;;1.88;0.90;;;;;;;26.46;36.68;94885.06;5130512;28;20208;-76
2023/09/10 11:31:41;;;;;;;0.55;0.52;;;;;;;25.96;36.09;94882.31;5131556;28;20208;-77
2023/09/10 11:34:37;;;;;;;0.80;0.70;;;;;;;25.66;36.65;94887.91;5130713;28;20675;-78
2023/09/10 11:37:05;;;;;;;1.02;0.70;;;;;;;25.85;36.95;94887.22;5130928;28;20611;-75
2023/09/10 11:39:34;;;;;;;0.63;0.60;;;;;;;26.11;37.12;94872.53;5130945;28;20260;-75
2023/09/10 11:42:02;;;;;;;1.38;0.60;;;;;;;26.12;36.70;94871.31;5130481;28;20722;-75